sensor_id;sensor_type;location;lat;lon;timestamp;temperature;humidity
1590;DHT22;788;48.720;9.158;2022-07-29T00:01:21;19.60;99.90
1590;DHT22;788;48.720;9.158;2022-07-29T00:03:49;19.70;99.90
1590;DHT22;788;48.720;9.158;2022-07-29T00:06:16;19.70;99.90
1590;DHT22;788;48.720;9.158;2022-07-29T00:08:43;19.70;99.90
1590;DHT22;788;48.720;9.158;2022-07-29T00:11:10;19.70;99.90
1590;DHT22;788;48.720;9.158;2022-07-29T00:13:36;19.70;99.90
1590;DHT22;788;48.720;9.158;2022-07-29T00:16:04;19.70;99.90
1590;DHT22;788;48.720;9.158;2022-07-29T00:18:30;19.70;99.90
1590;DHT22;788;48.720;9.158;2022-07-29T00:20:58;19.80;99.90
1590;DHT22;788;48.720;9.158;2022-07-29T00:23:25;19.70;99.90
1590;DHT22;788;48.720;9.158;2022-07-29T00:25:52;19.70;99.90
1590;DHT22;788;48.720;9.158;2022-07-29T00:28:21;19.60;99.90
1590;DHT22;788;48.720;9.158;2022-07-29T00:30:48;19.60;99.90
1590;DHT22;788;48.720;9.158;2022-07-29T00:33:14;19.50;99.90
1590;DHT22;788;48.720;9.158;2022-07-29T00:35:41;19.50;99.90
1590;DHT22;788;48.720;9.158;2022-07-29T00:38:12;19.40;99.90
1590;DHT22;788;48.720;9.158;2022-07-29T00:40:39;19.30;99.90
1590;DHT22;788;48.720;9.158;2022-07-29T00:43:06;19.40;99.90
1590;DHT22;788;48.720;9.158;2022-07-29T00:45:32;19.20;99.90
1590;DHT22;788;48.720;9.158;2022-07-29T00:47:59;19.20;99.90
1590;DHT22;788;48.720;9.158;2022-07-29T00:50:26;19.20;99.90
1590;DHT22;788;48.720;9.158;2022-07-29T00:52:53;19.10;99.90
1590;DHT22;788;48.720;9.158;2022-07-29T00:55:21;19.20;99.90
1590;DHT22;788;48.720;9.158;2022-07-29T00:57:48;19.10;99.90
1590;DHT22;788;48.720;9.158;2022-07-29T01:00:18;19.10;99.90
1590;DHT22;788;48.720;9.158;2022-07-29T01:02:46;19.10;99.90
1590;DHT22;788;48.720;9.158;2022-07-29T01:05:15;19.00;99.90
1590;DHT22;788;48.720;9.158;2022-07-29T01:07:42;19.10;99.90
1590;DHT22;788;48.720;9.158;2022-07-29T01:10:12;19.00;99.90
1590;DHT22;788;48.720;9.158;2022-07-29T01:12:43;19.10;99.90
1590;DHT22;788;48.720;9.158;2022-07-29T01:15:11;19.10;99.90
1590;DHT22;788;48.720;9.158;2022-07-29T01:17:42;19.10;99.90
1590;DHT22;788;48.720;9.158;2022-07-29T01:20:14;19.10;99.90
1590;DHT22;788;48.720;9.158;2022-07-29T01:25:58;19.10;99.90
1590;DHT22;788;48.720;9.158;2022-07-29T01:28:59;19.20;99.90
1590;DHT22;788;48.720;9.158;2022-07-29T01:31:31;19.20;99.90
1590;DHT22;788;48.720;9.158;2022-07-29T01:34:05;19.20;99.90
1590;DHT22;788;48.720;9.158;2022-07-29T01:36:35;19.10;99.90
1590;DHT22;788;48.720;9.158;2022-07-29T01:39:08;19.10;99.90
1590;DHT22;788;48.720;9.158;2022-07-29T01:41:38;19.00;99.90
1590;DHT22;788;48.720;9.158;2022-07-29T01:44:15;19.10;99.90
1590;DHT22;788;48.720;9.158;2022-07-29T01:46:48;19.00;99.90
1590;DHT22;788;48.720;9.158;2022-07-29T01:49:18;19.00;99.90
1590;DHT22;788;48.720;9.158;2022-07-29T01:51:49;19.00;99.90
1590;DHT22;788;48.720;9.158;2022-07-29T01:54:20;19.00;99.90
1590;DHT22;788;48.720;9.158;2022-07-29T01:56:51;19.00;99.90
1590;DHT22;788;48.720;9.158;2022-07-29T01:59:20;19.00;99.90
1590;DHT22;788;48.720;9.158;2022-07-29T02:01:50;18.90;99.90
1590;DHT22;788;48.720;9.158;2022-07-29T02:04:20;18.90;99.90
1590;DHT22;788;48.720;9.158;2022-07-29T02:06:50;18.80;99.90
1590;DHT22;788;48.720;9.158;2022-07-29T02:09:17;18.80;99.90
1590;DHT22;788;48.720;9.158;2022-07-29T02:11:48;18.80;99.90
1590;DHT22;788;48.720;9.158;2022-07-29T02:14:19;18.70;99.90
1590;DHT22;788;48.720;9.158;2022-07-29T02:16:47;18.70;99.90
1590;DHT22;788;48.720;9.158;2022-07-29T02:19:16;18.60;99.90
1590;DHT22;788;48.720;9.158;2022-07-29T02:21:45;18.60;99.90
1590;DHT22;788;48.720;9.158;2022-07-29T02:24:12;18.60;99.90
1590;DHT22;788;48.720;9.158;2022-07-29T02:26:41;18.60;99.90
1590;DHT22;788;48.720;9.158;2022-07-29T02:29:10;18.60;99.90
1590;DHT22;788;48.720;9.158;2022-07-29T02:31:39;18.60;99.90
1590;DHT22;788;48.720;9.158;2022-07-29T02:34:09;18.60;99.90
1590;DHT22;788;48.720;9.158;2022-07-29T02:36:36;18.60;99.90
1590;DHT22;788;48.720;9.158;2022-07-29T02:39:04;18.60;99.90
1590;DHT22;788;48.720;9.158;2022-07-29T02:41:38;18.60;99.90
1590;DHT22;788;48.720;9.158;2022-07-29T02:44:10;18.50;99.90
1590;DHT22;788;48.720;9.158;2022-07-29T02:46:45;18.50;99.90
1590;DHT22;788;48.720;9.158;2022-07-29T02:49:16;18.60;99.90
1590;DHT22;788;48.720;9.158;2022-07-29T02:51:51;18.60;99.90
1590;DHT22;788;48.720;9.158;2022-07-29T02:54:23;18.50;99.90
1590;DHT22;788;48.720;9.158;2022-07-29T02:56:54;18.50;99.90
1590;DHT22;788;48.720;9.158;2022-07-29T02:59:26;18.60;99.90
1590;DHT22;788;48.720;9.158;2022-07-29T03:01:57;18.60;99.90
1590;DHT22;788;48.720;9.158;2022-07-29T03:04:26;18.60;99.90
1590;DHT22;788;48.720;9.158;2022-07-29T03:06:55;18.60;99.90
1590;DHT22;788;48.720;9.158;2022-07-29T03:09:25;18.60;99.90
1590;DHT22;788;48.720;9.158;2022-07-29T03:11:54;18.60;99.90
1590;DHT22;788;48.720;9.158;2022-07-29T03:14:21;18.60;99.90
1590;DHT22;788;48.720;9.158;2022-07-29T03:16:49;18.50;99.90
1590;DHT22;788;48.720;9.158;2022-07-29T03:19:18;18.50;99.90
1590;DHT22;788;48.720;9.158;2022-07-29T03:21:45;18.40;99.90
1590;DHT22;788;48.720;9.158;2022-07-29T03:24:25;18.30;99.90
1590;DHT22;788;48.720;9.158;2022-07-29T03:26:52;18.10;99.90
1590;DHT22;788;48.720;9.158;2022-07-29T03:29:18;18.10;99.90
1590;DHT22;788;48.720;9.158;2022-07-29T03:31:45;18.10;99.90
1590;DHT22;788;48.720;9.158;2022-07-29T03:34:12;17.90;99.90
1590;DHT22;788;48.720;9.158;2022-07-29T03:36:40;17.80;99.90
1590;DHT22;788;48.720;9.158;2022-07-29T03:39:07;17.70;99.90
1590;DHT22;788;48.720;9.158;2022-07-29T03:41:36;17.80;99.90
1590;DHT22;788;48.720;9.158;2022-07-29T03:44:05;17.80;99.90
1590;DHT22;788;48.720;9.158;2022-07-29T03:46:34;17.70;99.90
1590;DHT22;788;48.720;9.158;2022-07-29T03:49:03;17.70;99.90
1590;DHT22;788;48.720;9.158;2022-07-29T03:51:30;17.80;99.90
1590;DHT22;788;48.720;9.158;2022-07-29T03:53:59;17.70;99.90
1590;DHT22;788;48.720;9.158;2022-07-29T03:56:27;17.80;99.90
1590;DHT22;788;48.720;9.158;2022-07-29T03:58:54;17.70;99.90
1590;DHT22;788;48.720;9.158;2022-07-29T04:01:22;17.70;99.90
1590;DHT22;788;48.720;9.158;2022-07-29T04:03:50;17.70;99.90
1590;DHT22;788;48.720;9.158;2022-07-29T04:06:17;17.80;99.90
1590;DHT22;788;48.720;9.158;2022-07-29T04:08:43;17.70;99.90
1590;DHT22;788;48.720;9.158;2022-07-29T04:11:12;17.70;99.90
1590;DHT22;788;48.720;9.158;2022-07-29T04:13:39;17.70;99.90
1590;DHT22;788;48.720;9.158;2022-07-29T04:16:05;17.70;99.90
1590;DHT22;788;48.720;9.158;2022-07-29T04:18:32;17.80;99.90
1590;DHT22;788;48.720;9.158;2022-07-29T04:20:59;17.70;99.90
1590;DHT22;788;48.720;9.158;2022-07-29T04:23:26;17.80;99.90
1590;DHT22;788;48.720;9.158;2022-07-29T04:25:53;17.90;99.90
1590;DHT22;788;48.720;9.158;2022-07-29T04:28:21;17.90;99.90
1590;DHT22;788;48.720;9.158;2022-07-29T04:30:48;17.70;99.90
1590;DHT22;788;48.720;9.158;2022-07-29T04:33:14;17.80;99.90
1590;DHT22;788;48.720;9.158;2022-07-29T04:35:41;17.80;99.90
1590;DHT22;788;48.720;9.158;2022-07-29T04:38:07;17.70;99.90
1590;DHT22;788;48.720;9.158;2022-07-29T04:40:34;17.70;99.90
1590;DHT22;788;48.720;9.158;2022-07-29T04:43:01;17.70;99.90
1590;DHT22;788;48.720;9.158;2022-07-29T04:45:29;17.60;99.90
1590;DHT22;788;48.720;9.158;2022-07-29T04:47:56;17.60;99.90
1590;DHT22;788;48.720;9.158;2022-07-29T04:50:22;17.80;99.90
1590;DHT22;788;48.720;9.158;2022-07-29T04:52:49;17.80;99.90
1590;DHT22;788;48.720;9.158;2022-07-29T04:55:16;17.80;99.90
1590;DHT22;788;48.720;9.158;2022-07-29T04:57:43;17.70;99.90
1590;DHT22;788;48.720;9.158;2022-07-29T05:00:10;17.80;99.90
1590;DHT22;788;48.720;9.158;2022-07-29T05:02:39;17.80;99.90
1590;DHT22;788;48.720;9.158;2022-07-29T05:05:06;17.80;99.90
1590;DHT22;788;48.720;9.158;2022-07-29T05:07:33;17.80;99.90
1590;DHT22;788;48.720;9.158;2022-07-29T05:09:59;17.90;99.90
1590;DHT22;788;48.720;9.158;2022-07-29T05:12:26;18.00;99.90
1590;DHT22;788;48.720;9.158;2022-07-29T05:14:53;18.10;99.90
1590;DHT22;788;48.720;9.158;2022-07-29T05:17:20;18.20;99.90
1590;DHT22;788;48.720;9.158;2022-07-29T05:19:48;18.30;99.90
1590;DHT22;788;48.720;9.158;2022-07-29T05:22:17;18.50;99.90
1590;DHT22;788;48.720;9.158;2022-07-29T05:24:43;18.50;99.90
1590;DHT22;788;48.720;9.158;2022-07-29T05:27:10;18.60;99.90
1590;DHT22;788;48.720;9.158;2022-07-29T05:29:37;18.80;99.90
1590;DHT22;788;48.720;9.158;2022-07-29T05:32:04;18.90;99.90
1590;DHT22;788;48.720;9.158;2022-07-29T05:34:31;19.00;99.90
1590;DHT22;788;48.720;9.158;2022-07-29T05:36:59;19.20;99.90
1590;DHT22;788;48.720;9.158;2022-07-29T05:39:26;19.40;99.90
1590;DHT22;788;48.720;9.158;2022-07-29T05:41:53;19.60;99.90
1590;DHT22;788;48.720;9.158;2022-07-29T05:44:19;19.80;99.90
1590;DHT22;788;48.720;9.158;2022-07-29T05:46:46;19.80;99.90
1590;DHT22;788;48.720;9.158;2022-07-29T05:49:13;20.00;99.90
1590;DHT22;788;48.720;9.158;2022-07-29T05:51:39;20.10;99.90
1590;DHT22;788;48.720;9.158;2022-07-29T05:54:07;20.20;99.90
1590;DHT22;788;48.720;9.158;2022-07-29T05:56:35;20.10;99.90
1590;DHT22;788;48.720;9.158;2022-07-29T05:59:03;20.10;99.90
1590;DHT22;788;48.720;9.158;2022-07-29T06:01:29;20.10;99.90
1590;DHT22;788;48.720;9.158;2022-07-29T06:03:56;20.30;99.90
1590;DHT22;788;48.720;9.158;2022-07-29T06:06:23;20.40;99.90
1590;DHT22;788;48.720;9.158;2022-07-29T06:08:50;20.50;99.90
1590;DHT22;788;48.720;9.158;2022-07-29T06:11:18;20.60;99.90
1590;DHT22;788;48.720;9.158;2022-07-29T06:13:45;20.80;99.90
1590;DHT22;788;48.720;9.158;2022-07-29T06:16:12;20.80;99.90
1590;DHT22;788;48.720;9.158;2022-07-29T06:18:38;20.70;99.90
1590;DHT22;788;48.720;9.158;2022-07-29T06:21:08;20.80;99.90
1590;DHT22;788;48.720;9.158;2022-07-29T06:23:36;20.90;99.90
1590;DHT22;788;48.720;9.158;2022-07-29T06:26:03;20.90;99.90
1590;DHT22;788;48.720;9.158;2022-07-29T06:28:31;21.00;99.90
1590;DHT22;788;48.720;9.158;2022-07-29T06:30:59;21.00;99.90
1590;DHT22;788;48.720;9.158;2022-07-29T06:33:25;21.00;99.90
1590;DHT22;788;48.720;9.158;2022-07-29T06:35:52;21.20;99.90
1590;DHT22;788;48.720;9.158;2022-07-29T06:38:19;21.50;99.90
1590;DHT22;788;48.720;9.158;2022-07-29T06:40:46;21.70;99.90
1590;DHT22;788;48.720;9.158;2022-07-29T06:43:37;21.60;99.90
1590;DHT22;788;48.720;9.158;2022-07-29T06:46:05;21.80;99.90
1590;DHT22;788;48.720;9.158;2022-07-29T06:48:33;21.70;99.90
1590;DHT22;788;48.720;9.158;2022-07-29T06:51:00;21.70;99.90
1590;DHT22;788;48.720;9.158;2022-07-29T06:53:27;21.60;99.90
1590;DHT22;788;48.720;9.158;2022-07-29T06:55:54;21.50;99.90
1590;DHT22;788;48.720;9.158;2022-07-29T06:58:21;21.40;99.90
1590;DHT22;788;48.720;9.158;2022-07-29T07:00:50;21.30;99.90
1590;DHT22;788;48.720;9.158;2022-07-29T07:03:17;21.30;99.90
1590;DHT22;788;48.720;9.158;2022-07-29T07:05:45;21.40;99.90
1590;DHT22;788;48.720;9.158;2022-07-29T07:08:12;21.50;99.90
1590;DHT22;788;48.720;9.158;2022-07-29T07:10:39;21.40;99.90
1590;DHT22;788;48.720;9.158;2022-07-29T07:13:06;21.50;99.90
1590;DHT22;788;48.720;9.158;2022-07-29T07:15:33;21.60;99.90
1590;DHT22;788;48.720;9.158;2022-07-29T07:18:01;21.70;99.90
1590;DHT22;788;48.720;9.158;2022-07-29T07:20:28;21.90;99.90
1590;DHT22;788;48.720;9.158;2022-07-29T07:22:55;22.00;99.90
1590;DHT22;788;48.720;9.158;2022-07-29T07:25:21;22.10;99.90
1590;DHT22;788;48.720;9.158;2022-07-29T07:27:48;22.20;99.90
1590;DHT22;788;48.720;9.158;2022-07-29T07:30:15;22.30;99.90
1590;DHT22;788;48.720;9.158;2022-07-29T07:32:42;22.40;99.90
1590;DHT22;788;48.720;9.158;2022-07-29T07:35:10;22.40;99.90
1590;DHT22;788;48.720;9.158;2022-07-29T07:37:38;22.40;99.90
1590;DHT22;788;48.720;9.158;2022-07-29T07:40:07;22.50;99.90
1590;DHT22;788;48.720;9.158;2022-07-29T07:42:34;22.40;99.90
1590;DHT22;788;48.720;9.158;2022-07-29T07:45:01;22.50;99.90
1590;DHT22;788;48.720;9.158;2022-07-29T07:47:27;22.70;99.90
1590;DHT22;788;48.720;9.158;2022-07-29T07:49:54;22.80;99.90
1590;DHT22;788;48.720;9.158;2022-07-29T07:52:22;22.90;99.90
1590;DHT22;788;48.720;9.158;2022-07-29T07:54:49;23.10;99.90
1590;DHT22;788;48.720;9.158;2022-07-29T07:57:17;23.10;99.90
1590;DHT22;788;48.720;9.158;2022-07-29T07:59:43;23.20;99.90
1590;DHT22;788;48.720;9.158;2022-07-29T08:02:11;23.30;99.90
1590;DHT22;788;48.720;9.158;2022-07-29T08:04:38;23.40;99.90
1590;DHT22;788;48.720;9.158;2022-07-29T08:07:06;23.60;99.90
1590;DHT22;788;48.720;9.158;2022-07-29T08:09:36;23.60;99.90
1590;DHT22;788;48.720;9.158;2022-07-29T08:12:03;23.70;99.90
1590;DHT22;788;48.720;9.158;2022-07-29T08:14:31;23.60;99.90
1590;DHT22;788;48.720;9.158;2022-07-29T09:18:40;25.50;96.90
1590;DHT22;788;48.720;9.158;2022-07-29T09:21:08;25.70;99.10
1590;DHT22;788;48.720;9.158;2022-07-29T09:24:05;25.80;99.80
1590;DHT22;788;48.720;9.158;2022-07-29T09:26:35;25.90;99.60
1590;DHT22;788;48.720;9.158;2022-07-29T09:29:12;26.10;98.10
1590;DHT22;788;48.720;9.158;2022-07-29T09:31:41;26.40;97.80
1590;DHT22;788;48.720;9.158;2022-07-29T09:34:47;26.60;98.70
1590;DHT22;788;48.720;9.158;2022-07-29T09:37:25;26.80;99.00
1590;DHT22;788;48.720;9.158;2022-07-29T09:39:53;27.10;98.40
1590;DHT22;788;48.720;9.158;2022-07-29T09:42:28;27.40;97.50
1590;DHT22;788;48.720;9.158;2022-07-29T09:44:55;27.60;94.80
1590;DHT22;788;48.720;9.158;2022-07-29T09:47:22;27.80;95.00
1590;DHT22;788;48.720;9.158;2022-07-29T09:49:54;28.00;95.60
1590;DHT22;788;48.720;9.158;2022-07-29T09:52:23;28.30;94.60
1590;DHT22;788;48.720;9.158;2022-07-29T09:54:51;28.70;94.40
1590;DHT22;788;48.720;9.158;2022-07-29T09:57:26;29.10;92.50
1590;DHT22;788;48.720;9.158;2022-07-29T09:59:58;29.40;92.10
1590;DHT22;788;48.720;9.158;2022-07-29T10:02:29;29.50;91.10
1590;DHT22;788;48.720;9.158;2022-07-29T10:05:21;29.60;90.50
1590;DHT22;788;48.720;9.158;2022-07-29T10:08:25;29.60;90.40
1590;DHT22;788;48.720;9.158;2022-07-29T10:11:10;29.60;89.10
1590;DHT22;788;48.720;9.158;2022-07-29T10:13:41;29.70;89.80
1590;DHT22;788;48.720;9.158;2022-07-29T10:16:08;29.70;87.70
1590;DHT22;788;48.720;9.158;2022-07-29T10:18:35;29.80;87.40
1590;DHT22;788;48.720;9.158;2022-07-29T10:21:03;29.80;88.80
1590;DHT22;788;48.720;9.158;2022-07-29T10:23:30;29.70;86.00
1590;DHT22;788;48.720;9.158;2022-07-29T10:25:57;29.70;84.10
1590;DHT22;788;48.720;9.158;2022-07-29T10:28:24;29.00;85.50
1590;DHT22;788;48.720;9.158;2022-07-29T10:30:52;28.50;87.40
1590;DHT22;788;48.720;9.158;2022-07-29T10:33:38;28.50;88.90
1590;DHT22;788;48.720;9.158;2022-07-29T10:36:17;28.60;88.30
1590;DHT22;788;48.720;9.158;2022-07-29T10:38:52;28.70;88.70
1590;DHT22;788;48.720;9.158;2022-07-29T10:41:51;28.70;86.50
1590;DHT22;788;48.720;9.158;2022-07-29T10:44:23;28.80;88.90
1590;DHT22;788;48.720;9.158;2022-07-29T10:46:51;28.70;86.30
1590;DHT22;788;48.720;9.158;2022-07-29T10:49:27;28.50;85.10
1590;DHT22;788;48.720;9.158;2022-07-29T10:52:14;28.40;85.40
1590;DHT22;788;48.720;9.158;2022-07-29T10:54:48;27.30;88.70
1590;DHT22;788;48.720;9.158;2022-07-29T10:57:22;26.60;90.40
1590;DHT22;788;48.720;9.158;2022-07-29T11:02:44;25.50;92.80
1590;DHT22;788;48.720;9.158;2022-07-29T11:08:35;24.30;96.60
1590;DHT22;788;48.720;9.158;2022-07-29T11:11:35;23.40;99.90
1590;DHT22;788;48.720;9.158;2022-07-29T11:14:06;22.70;99.90
1590;DHT22;788;48.720;9.158;2022-07-29T11:17:01;22.00;99.90
1590;DHT22;788;48.720;9.158;2022-07-29T11:19:29;21.50;99.90
1590;DHT22;788;48.720;9.158;2022-07-29T11:21:56;21.00;99.90
1590;DHT22;788;48.720;9.158;2022-07-29T11:24:26;21.00;99.90
1590;DHT22;788;48.720;9.158;2022-07-29T11:27:14;20.80;99.90
1590;DHT22;788;48.720;9.158;2022-07-29T11:29:49;20.70;99.90
1590;DHT22;788;48.720;9.158;2022-07-29T11:32:18;20.60;99.90
1590;DHT22;788;48.720;9.158;2022-07-29T11:34:46;20.50;99.90
1590;DHT22;788;48.720;9.158;2022-07-29T11:37:23;20.50;99.90
1590;DHT22;788;48.720;9.158;2022-07-29T11:40:17;20.40;99.90
1590;DHT22;788;48.720;9.158;2022-07-29T11:42:48;20.30;99.90
1590;DHT22;788;48.720;9.158;2022-07-29T11:45:20;20.20;99.90
1590;DHT22;788;48.720;9.158;2022-07-29T11:47:53;20.20;99.90
1590;DHT22;788;48.720;9.158;2022-07-29T11:50:34;20.10;99.90
1590;DHT22;788;48.720;9.158;2022-07-29T11:53:03;20.00;99.90
1590;DHT22;788;48.720;9.158;2022-07-29T11:55:38;19.90;99.90
1590;DHT22;788;48.720;9.158;2022-07-29T11:58:05;19.90;99.90
1590;DHT22;788;48.720;9.158;2022-07-29T12:00:33;19.80;99.90
1590;DHT22;788;48.720;9.158;2022-07-29T12:03:02;19.80;99.90
1590;DHT22;788;48.720;9.158;2022-07-29T12:05:35;19.70;99.90
1590;DHT22;788;48.720;9.158;2022-07-29T12:08:07;19.70;99.90
1590;DHT22;788;48.720;9.158;2022-07-29T12:10:35;19.70;99.90
1590;DHT22;788;48.720;9.158;2022-07-29T12:13:07;19.60;99.90
1590;DHT22;788;48.720;9.158;2022-07-29T12:15:35;19.60;99.90
1590;DHT22;788;48.720;9.158;2022-07-29T12:18:15;19.70;99.90
1590;DHT22;788;48.720;9.158;2022-07-29T12:20:43;19.90;99.90
1590;DHT22;788;48.720;9.158;2022-07-29T12:23:25;20.00;99.90
1590;DHT22;788;48.720;9.158;2022-07-29T12:25:55;20.20;99.90
1590;DHT22;788;48.720;9.158;2022-07-29T12:28:25;20.40;99.90
1590;DHT22;788;48.720;9.158;2022-07-29T12:30:51;20.50;99.90
1590;DHT22;788;48.720;9.158;2022-07-29T12:33:20;20.70;99.90
1590;DHT22;788;48.720;9.158;2022-07-29T12:35:58;20.90;99.90
1590;DHT22;788;48.720;9.158;2022-07-29T12:42:19;21.10;99.90
1590;DHT22;788;48.720;9.158;2022-07-29T12:44:49;21.10;99.90
1590;DHT22;788;48.720;9.158;2022-07-29T12:47:18;21.10;99.90
1590;DHT22;788;48.720;9.158;2022-07-29T12:49:49;21.20;99.90
1590;DHT22;788;48.720;9.158;2022-07-29T12:52:28;21.30;99.90
1590;DHT22;788;48.720;9.158;2022-07-29T12:54:55;21.40;99.90
1590;DHT22;788;48.720;9.158;2022-07-29T12:57:23;21.50;99.90
1590;DHT22;788;48.720;9.158;2022-07-29T13:00:05;21.20;99.90
1590;DHT22;788;48.720;9.158;2022-07-29T13:02:41;21.30;99.90
1590;DHT22;788;48.720;9.158;2022-07-29T13:05:10;21.40;99.90
1590;DHT22;788;48.720;9.158;2022-07-29T13:07:38;21.40;99.90
1590;DHT22;788;48.720;9.158;2022-07-29T13:10:14;21.40;99.90
1590;DHT22;788;48.720;9.158;2022-07-29T13:13:02;21.20;99.90
1590;DHT22;788;48.720;9.158;2022-07-29T13:15:38;21.10;99.90
1590;DHT22;788;48.720;9.158;2022-07-29T13:18:28;21.00;99.90
1590;DHT22;788;48.720;9.158;2022-07-29T13:20:56;21.10;99.90
1590;DHT22;788;48.720;9.158;2022-07-29T13:23:23;20.80;99.90
1590;DHT22;788;48.720;9.158;2022-07-29T13:25:50;20.50;99.90
1590;DHT22;788;48.720;9.158;2022-07-29T13:28:16;20.30;99.90
1590;DHT22;788;48.720;9.158;2022-07-29T13:30:44;20.20;99.90
1590;DHT22;788;48.720;9.158;2022-07-29T13:33:12;20.30;99.90
1590;DHT22;788;48.720;9.158;2022-07-29T13:35:38;20.30;99.90
1590;DHT22;788;48.720;9.158;2022-07-29T13:38:05;20.30;99.90
1590;DHT22;788;48.720;9.158;2022-07-29T13:40:32;20.30;99.90
1590;DHT22;788;48.720;9.158;2022-07-29T13:43:00;20.30;99.90
1590;DHT22;788;48.720;9.158;2022-07-29T13:45:27;20.50;99.90
1590;DHT22;788;48.720;9.158;2022-07-29T13:47:55;20.60;99.90
1590;DHT22;788;48.720;9.158;2022-07-29T13:50:25;20.80;99.90
1590;DHT22;788;48.720;9.158;2022-07-29T13:52:52;20.90;99.90
1590;DHT22;788;48.720;9.158;2022-07-29T13:55:18;21.00;99.90
1590;DHT22;788;48.720;9.158;2022-07-29T13:57:45;21.20;99.90
1590;DHT22;788;48.720;9.158;2022-07-29T14:00:13;21.40;99.90
1590;DHT22;788;48.720;9.158;2022-07-29T14:02:42;21.60;99.90
1590;DHT22;788;48.720;9.158;2022-07-29T14:08:44;22.10;99.90
1590;DHT22;788;48.720;9.158;2022-07-29T14:11:11;22.40;99.90
1590;DHT22;788;48.720;9.158;2022-07-29T14:13:37;22.70;99.90
1590;DHT22;788;48.720;9.158;2022-07-29T14:16:04;22.90;99.90
1590;DHT22;788;48.720;9.158;2022-07-29T14:18:32;23.20;99.90
1590;DHT22;788;48.720;9.158;2022-07-29T14:21:06;23.40;99.90
1590;DHT22;788;48.720;9.158;2022-07-29T14:23:33;23.60;99.90
1590;DHT22;788;48.720;9.158;2022-07-29T14:26:01;23.70;99.90
1590;DHT22;788;48.720;9.158;2022-07-29T14:28:28;23.90;99.90
1590;DHT22;788;48.720;9.158;2022-07-29T14:30:55;24.10;99.90
1590;DHT22;788;48.720;9.158;2022-07-29T14:33:28;24.00;99.90
1590;DHT22;788;48.720;9.158;2022-07-29T14:35:56;24.10;99.90
1590;DHT22;788;48.720;9.158;2022-07-29T14:38:36;24.30;99.90
1590;DHT22;788;48.720;9.158;2022-07-29T14:44:55;24.30;99.90
1590;DHT22;788;48.720;9.158;2022-07-29T14:47:22;24.30;99.90
1590;DHT22;788;48.720;9.158;2022-07-29T14:52:45;24.40;99.90
1590;DHT22;788;48.720;9.158;2022-07-29T14:55:11;24.50;99.90
1590;DHT22;788;48.720;9.158;2022-07-29T14:57:38;24.60;99.90
1590;DHT22;788;48.720;9.158;2022-07-29T15:00:08;24.60;99.90
1590;DHT22;788;48.720;9.158;2022-07-29T15:02:36;24.60;99.90
1590;DHT22;788;48.720;9.158;2022-07-29T15:05:03;24.70;99.90
1590;DHT22;788;48.720;9.158;2022-07-29T15:07:30;24.80;99.90
1590;DHT22;788;48.720;9.158;2022-07-29T15:09:57;24.80;99.90
1590;DHT22;788;48.720;9.158;2022-07-29T15:12:24;24.90;99.90
1590;DHT22;788;48.720;9.158;2022-07-29T15:14:51;24.90;99.90
1590;DHT22;788;48.720;9.158;2022-07-29T15:17:19;24.90;99.90
1590;DHT22;788;48.720;9.158;2022-07-29T15:19:46;24.90;99.90
1590;DHT22;788;48.720;9.158;2022-07-29T15:22:13;24.90;99.90
1590;DHT22;788;48.720;9.158;2022-07-29T15:24:40;24.90;99.90
1590;DHT22;788;48.720;9.158;2022-07-29T15:27:07;25.00;99.90
1590;DHT22;788;48.720;9.158;2022-07-29T15:29:43;25.00;99.90
1590;DHT22;788;48.720;9.158;2022-07-29T15:32:10;25.00;99.90
1590;DHT22;788;48.720;9.158;2022-07-29T15:34:38;25.00;99.90
1590;DHT22;788;48.720;9.158;2022-07-29T15:37:05;24.90;99.90
1590;DHT22;788;48.720;9.158;2022-07-29T15:39:32;24.90;99.90
1590;DHT22;788;48.720;9.158;2022-07-29T15:42:30;24.90;99.90
1590;DHT22;788;48.720;9.158;2022-07-29T15:45:54;24.90;99.90
1590;DHT22;788;48.720;9.158;2022-07-29T15:48:39;24.90;99.90
1590;DHT22;788;48.720;9.158;2022-07-29T15:51:07;24.90;99.90
1590;DHT22;788;48.720;9.158;2022-07-29T15:53:34;24.80;99.90
1590;DHT22;788;48.720;9.158;2022-07-29T15:56:00;24.80;99.90
1590;DHT22;788;48.720;9.158;2022-07-29T15:58:27;24.70;99.90
1590;DHT22;788;48.720;9.158;2022-07-29T16:00:54;24.80;99.90
1590;DHT22;788;48.720;9.158;2022-07-29T16:03:21;24.70;99.90
1590;DHT22;788;48.720;9.158;2022-07-29T16:05:52;24.70;99.90
1590;DHT22;788;48.720;9.158;2022-07-29T16:08:20;24.60;99.90
1590;DHT22;788;48.720;9.158;2022-07-29T16:10:47;24.50;99.90
1590;DHT22;788;48.720;9.158;2022-07-29T16:13:14;24.30;99.90
1590;DHT22;788;48.720;9.158;2022-07-29T16:15:57;24.20;99.90
1590;DHT22;788;48.720;9.158;2022-07-29T16:18:35;24.00;99.90
1590;DHT22;788;48.720;9.158;2022-07-29T16:21:02;23.80;99.90
1590;DHT22;788;48.720;9.158;2022-07-29T16:23:30;23.70;99.90
1590;DHT22;788;48.720;9.158;2022-07-29T16:25:57;23.40;99.90
1590;DHT22;788;48.720;9.158;2022-07-29T16:28:23;23.30;99.90
1590;DHT22;788;48.720;9.158;2022-07-29T16:30:50;23.00;99.90
1590;DHT22;788;48.720;9.158;2022-07-29T16:33:17;23.10;99.90
1590;DHT22;788;48.720;9.158;2022-07-29T16:35:48;23.20;99.90
1590;DHT22;788;48.720;9.158;2022-07-29T16:38:15;23.20;99.90
1590;DHT22;788;48.720;9.158;2022-07-29T16:40:43;23.30;99.90
1590;DHT22;788;48.720;9.158;2022-07-29T16:43:10;23.40;99.90
1590;DHT22;788;48.720;9.158;2022-07-29T16:45:43;23.30;99.90
1590;DHT22;788;48.720;9.158;2022-07-29T16:48:10;23.40;99.90
1590;DHT22;788;48.720;9.158;2022-07-29T16:50:37;23.40;99.90
1590;DHT22;788;48.720;9.158;2022-07-29T16:53:04;23.50;99.90
1590;DHT22;788;48.720;9.158;2022-07-29T16:55:31;23.30;99.90
1590;DHT22;788;48.720;9.158;2022-07-29T16:57:59;23.40;99.90
1590;DHT22;788;48.720;9.158;2022-07-29T17:00:26;23.40;99.90
1590;DHT22;788;48.720;9.158;2022-07-29T17:02:52;23.40;99.90
1590;DHT22;788;48.720;9.158;2022-07-29T17:05:19;23.30;99.90
1590;DHT22;788;48.720;9.158;2022-07-29T17:07:46;23.40;99.90
1590;DHT22;788;48.720;9.158;2022-07-29T17:10:14;23.40;99.90
1590;DHT22;788;48.720;9.158;2022-07-29T17:12:41;23.60;99.90
1590;DHT22;788;48.720;9.158;2022-07-29T17:15:10;23.60;99.90
1590;DHT22;788;48.720;9.158;2022-07-29T17:17:37;23.60;99.90
1590;DHT22;788;48.720;9.158;2022-07-29T17:20:06;23.80;99.90
1590;DHT22;788;48.720;9.158;2022-07-29T17:22:33;23.80;99.90
1590;DHT22;788;48.720;9.158;2022-07-29T17:25:00;23.90;99.90
1590;DHT22;788;48.720;9.158;2022-07-29T17:27:27;24.10;99.90
1590;DHT22;788;48.720;9.158;2022-07-29T17:29:54;24.20;99.90
1590;DHT22;788;48.720;9.158;2022-07-29T17:32:22;24.30;99.90
1590;DHT22;788;48.720;9.158;2022-07-29T17:34:48;24.30;99.90
1590;DHT22;788;48.720;9.158;2022-07-29T17:37:15;24.40;99.90
1590;DHT22;788;48.720;9.158;2022-07-29T17:39:42;24.40;99.90
1590;DHT22;788;48.720;9.158;2022-07-29T17:42:10;24.20;99.90
1590;DHT22;788;48.720;9.158;2022-07-29T17:44:37;24.20;99.90
1590;DHT22;788;48.720;9.158;2022-07-29T17:47:04;24.30;99.90
1590;DHT22;788;48.720;9.158;2022-07-29T17:49:32;24.20;99.90
1590;DHT22;788;48.720;9.158;2022-07-29T17:51:59;24.40;99.90
1590;DHT22;788;48.720;9.158;2022-07-29T17:54:26;24.60;99.90
1590;DHT22;788;48.720;9.158;2022-07-29T17:56:53;24.70;99.90
1590;DHT22;788;48.720;9.158;2022-07-29T17:59:19;24.90;99.90